El-djazair II — 7TBR — position and weather

sailwx.info

Track history (hours):
 
Tides and Currents Weather Stations Pressure Air Temp Water Temp Dewpoint Dewpoint Depression Visibility Wind Speed Wind Dir Waves Ship Positions

El-djazair II

Last reported at 2016-May-04 13:16 UTC. Time now 2016-May-04 15:24 UTC.
Position N 43°19' E 005°21'.

Length 146 m; draft 6.3 m.

Type: Passenger vessel. MMSI: 605026190.

Date/timePositionNaut miles runAvg speedWind from/ knotsBaromVisibWave heightAir tempDewpointWater temp
2016-May-04 13:16N 43°19' E 005°21'0 0.0
2016-May-04 12:33N 43°19' E 005°21'7 7.2
2016-May-04 11:34N 43°16' E 005°13'2622.7
2016-May-04 10:25N 42°57' E 004°49'12820.8
2016-May-04 04:16N 41°02' E 003°32'4022.8
2016-May-04 02:31N 40°23' E 003°40'2223.1
2016-May-04 01:33N 40°01' E 003°42'2323.2
2016-May-04 00:33N 39°39' E 003°53'2423.5
2016-May-03 23:30N 39°16' E 004°04'  
Track history (hours):
 
Tides and Currents Weather Stations Pressure Air Temp Water Temp Dewpoint Dewpoint Depression Visibility Wind Speed Wind Dir Waves Ship Positions

El-djazair II

Last reported at 2016-May-04 13:16 UTC. Time now 2016-May-04 15:24 UTC.
Position N 43°19' E 005°21'.

Length 146 m; draft 6.3 m.

Type: Passenger vessel. MMSI: 605026190.

Date/timePositionNaut miles runAvg speedWind from/ knotsBaromVisibWave heightAir tempDewpointWater temp
2016-May-04 13:16N 43°19' E 005°21'0 0.0
2016-May-04 12:33N 43°19' E 005°21'7 7.2
2016-May-04 11:34N 43°16' E 005°13'2622.7
2016-May-04 10:25N 42°57' E 004°49'12820.8
2016-May-04 04:16N 41°02' E 003°32'4022.8
2016-May-04 02:31N 40°23' E 003°40'2223.1
2016-May-04 01:33N 40°01' E 003°42'2323.2
2016-May-04 00:33N 39°39' E 003°53'2423.5
2016-May-03 23:30N 39°16' E 004°04'  

Dump ship's entire track history